KCNK/CNK METAR and TAF weather

Enter ICAO airport designator
Station Type Date Time Source
KCNK METAR 2021/01/16 01:05 UTC NOAA

KCNK 160105Z AUTO 33011G19KT 10SM OVC029 00/M06 A2998 RMK AO2 T00001056


Station Type Date Time Source
KCNK Decoded METAR 2021/01/16 01:05 UTC NOAA

Concordia, Blosser Municipal Airport, KS, United States (KCNK) 39-33-05N 097-39-02W 447M
Jan 15, 2021 - 08:05 PM EST / 2021.01.16 0105 UTC
Wind: from the NNW (330 degrees) at 13 MPH (11 KT) gusting to 22 MPH (19 KT):0
Visibility: 10 mile(s):0
Sky conditions: overcast
Temperature: 32.0 F (0.0 C)
Windchill: 23 F (-5 C):1
Dew Point: 21.9 F (-5.6 C)
Relative Humidity: 65%
Pressure (altimeter): 29.98 in. Hg (1015 hPa)
ob: KCNK 160105Z AUTO 33011G19KT 10SM OVC029 00/M06 A2998 RMK AO2 T00001056
cycle: 1

Station Type Date Time Source
KCNK TAF UTC NOAA

Error!

Example: see airport list